createdAt,value
2018-03-18T00:02:19.435Z,55.80
2018-03-18T00:04:45.729Z,56.30
2018-03-18T00:07:11.969Z,56.10
2018-03-18T00:09:38.120Z,55.70
2018-03-18T00:12:04.277Z,55.50
2018-03-18T00:14:31.217Z,55.90
2018-03-18T00:16:57.333Z,55.90
2018-03-18T00:19:24.407Z,54.90
2018-03-18T00:21:50.524Z,54.90
2018-03-18T00:24:16.673Z,55.20
2018-03-18T00:26:42.831Z,55.50
2018-03-18T00:29:09.739Z,55.90
2018-03-18T00:31:36.072Z,55.90
2018-03-18T00:34:02.206Z,55.90
2018-03-18T00:36:28.362Z,56.00
2018-03-18T00:38:54.486Z,55.80
2018-03-18T00:41:21.343Z,55.90
2018-03-18T00:43:47.518Z,55.90
2018-03-18T00:46:13.655Z,56.00
2018-03-18T00:48:39.775Z,55.40
2018-03-18T00:51:05.900Z,55.80
2018-03-18T00:53:32.055Z,55.40
2018-03-18T00:55:58.205Z,55.20
2018-03-18T00:58:24.351Z,55.90
2018-03-18T01:00:50.461Z,55.50
2018-03-18T01:03:16.681Z,55.60
2018-03-18T01:05:43.546Z,55.70
2018-03-18T01:08:10.175Z,55.60
2018-03-18T01:10:36.536Z,55.30
2018-03-18T01:13:02.684Z,55.40
2018-03-18T01:15:28.870Z,55.30
2018-03-18T01:17:55.024Z,55.50
2018-03-18T01:20:21.180Z,55.40
2018-03-18T01:22:47.308Z,55.00
2018-03-18T01:25:14.187Z,55.60
2018-03-18T01:27:41.805Z,56.10
2018-03-18T01:30:07.979Z,56.10
2018-03-18T01:32:35.967Z,55.20
2018-03-18T01:35:02.327Z,55.10
2018-03-18T01:37:28.457Z,55.60
2018-03-18T01:39:55.357Z,55.60
2018-03-18T01:42:21.545Z,55.50
2018-03-18T01:44:47.696Z,55.70
2018-03-18T01:47:14.830Z,55.70
2018-03-18T01:49:46.452Z,55.00
2018-03-18T01:52:12.619Z,56.20
2018-03-18T01:54:38.893Z,55.60
2018-03-18T01:57:05.767Z,55.80
2018-03-18T01:59:31.931Z,55.80
2018-03-18T02:01:58.043Z,55.50
2018-03-18T02:04:24.899Z,55.20
2018-03-18T02:06:51.082Z,55.10
2018-03-18T02:09:17.329Z,55.00
2018-03-18T02:11:43.455Z,55.00
2018-03-18T02:14:09.634Z,55.50
2018-03-18T02:16:35.751Z,55.70
2018-03-18T02:19:01.907Z,55.40
2018-03-18T02:21:28.044Z,55.30
2018-03-18T02:23:54.155Z,55.10
2018-03-18T02:26:20.287Z,55.20
2018-03-18T02:28:46.515Z,54.80
2018-03-18T02:31:12.680Z,55.20
2018-03-18T02:33:38.846Z,54.70
2018-03-18T02:36:05.008Z,54.50
2018-03-18T02:38:31.917Z,55.00
2018-03-18T02:40:58.058Z,55.00
2018-03-18T02:43:24.252Z,54.50
2018-03-18T02:45:51.141Z,54.70
2018-03-18T02:48:17.301Z,54.70
2018-03-18T02:50:43.425Z,54.00
2018-03-18T02:53:09.551Z,54.00
2018-03-18T02:55:35.741Z,54.60
2018-03-18T02:58:02.648Z,54.70
2018-03-18T03:00:28.810Z,54.70
2018-03-18T03:02:54.982Z,54.20
2018-03-18T03:05:21.107Z,54.40
2018-03-18T03:07:47.295Z,54.10
2018-03-18T03:10:13.427Z,53.80
2018-03-18T03:12:39.661Z,54.10
2018-03-18T03:15:06.543Z,54.20
2018-03-18T03:17:32.661Z,54.10
2018-03-18T03:19:59.584Z,53.90
2018-03-18T03:22:25.812Z,53.90
2018-03-18T03:24:52.006Z,53.90
2018-03-18T03:27:18.149Z,53.80
2018-03-18T03:29:44.332Z,54.10
2018-03-18T03:32:10.482Z,54.00
2018-03-18T03:34:36.595Z,53.90
2018-03-18T03:37:02.708Z,54.00
2018-03-18T03:39:28.873Z,53.70
2018-03-18T03:41:55.122Z,53.60
2018-03-18T03:44:21.284Z,53.40
2018-03-18T03:46:47.456Z,53.80
2018-03-18T03:49:13.589Z,53.20
2018-03-18T03:51:40.457Z,53.00
2018-03-18T03:54:06.557Z,53.00
2018-03-18T03:56:32.685Z,53.10
2018-03-18T03:58:58.846Z,53.20
2018-03-18T04:01:25.799Z,54.00
2018-03-18T04:03:51.936Z,53.90
2018-03-18T04:06:18.084Z,53.20
2018-03-18T04:08:44.207Z,53.20
2018-03-18T04:11:10.352Z,53.90
2018-03-18T04:13:36.488Z,53.80
2018-03-18T04:16:02.656Z,53.10
2018-03-18T04:18:28.816Z,53.20
2018-03-18T04:20:54.963Z,52.60
2018-03-18T04:23:21.112Z,52.40
2018-03-18T04:25:47.227Z,52.50
2018-03-18T04:28:13.368Z,52.50
2018-03-18T04:30:39.502Z,53.00
2018-03-18T04:33:05.644Z,53.20
2018-03-18T04:35:31.735Z,53.50
2018-03-18T04:37:57.873Z,53.70
2018-03-18T04:40:24.046Z,53.40
2018-03-18T04:42:50.176Z,53.70
2018-03-18T04:45:16.334Z,55.30
2018-03-18T04:47:42.465Z,53.90
2018-03-18T04:50:08.599Z,54.50
2018-03-18T04:52:36.472Z,54.90
2018-03-18T04:55:03.393Z,54.70
2018-03-18T04:57:29.565Z,54.70
2018-03-18T04:59:55.705Z,55.70
2018-03-18T05:02:22.545Z,57.10
2018-03-18T05:04:48.664Z,57.10
2018-03-18T05:07:14.809Z,57.60
2018-03-18T05:09:40.967Z,58.80
2018-03-18T05:12:07.200Z,59.70
2018-03-18T05:14:33.308Z,60.50
2018-03-18T05:16:59.445Z,62.80
2018-03-18T05:19:25.553Z,64.10
2018-03-18T05:21:51.675Z,65.30
2018-03-18T05:24:18.570Z,68.30
2018-03-18T05:26:44.729Z,68.20
2018-03-18T05:29:10.901Z,68.80
2018-03-18T05:31:37.047Z,69.60
2018-03-18T05:34:03.992Z,69.40
2018-03-18T05:36:30.075Z,69.30
2018-03-18T05:38:56.225Z,70.00
2018-03-18T05:41:22.367Z,68.90
2018-03-18T05:43:48.488Z,69.20
2018-03-18T05:46:14.633Z,67.50
2018-03-18T05:48:40.748Z,67.00
2018-03-18T05:51:06.871Z,64.20
2018-03-18T05:53:33.799Z,59.90
2018-03-18T05:55:59.921Z,59.60
2018-03-18T05:58:26.032Z,59.60
2018-03-18T06:00:52.137Z,59.70
2018-03-18T06:03:19.015Z,59.30
2018-03-18T06:05:46.079Z,59.80
2018-03-18T06:08:12.911Z,60.00
2018-03-18T06:10:39.038Z,60.00
2018-03-18T06:13:05.171Z,60.00
2018-03-18T06:15:31.292Z,61.10
2018-03-18T06:17:57.436Z,61.50
2018-03-18T06:20:23.565Z,61.40
2018-03-18T06:22:49.727Z,61.50
2018-03-18T06:25:15.871Z,62.10
2018-03-18T06:27:41.988Z,61.90
2018-03-18T06:30:08.124Z,61.50
2018-03-18T06:32:34.246Z,61.80
2018-03-18T06:35:00.451Z,63.50
2018-03-18T06:37:27.339Z,65.00
2018-03-18T06:39:53.410Z,65.00
2018-03-18T06:42:19.541Z,65.40
2018-03-18T06:44:45.686Z,64.10
2018-03-18T06:47:11.884Z,65.20
2018-03-18T06:49:38.022Z,65.90
2018-03-18T06:52:04.142Z,65.60
2018-03-18T06:54:30.299Z,65.20
2018-03-18T06:56:56.418Z,65.00
2018-03-18T06:59:24.384Z,65.80
2018-03-18T07:01:51.397Z,64.80
2018-03-18T07:04:17.623Z,64.70
2018-03-18T07:06:43.818Z,65.80
2018-03-18T07:09:09.961Z,66.10
2018-03-18T07:11:36.874Z,66.70
2018-03-18T07:14:03.008Z,66.00
2018-03-18T07:16:29.147Z,66.50
2018-03-18T07:18:55.425Z,66.10
2018-03-18T07:21:27.528Z,66.50
2018-03-18T07:23:54.415Z,66.30
2018-03-18T07:26:20.574Z,66.30
2018-03-18T07:28:46.695Z,66.30
2018-03-18T07:31:12.885Z,67.60
2018-03-18T07:33:39.053Z,65.60
2018-03-18T07:36:05.619Z,66.20
2018-03-18T07:38:31.850Z,67.70
2018-03-18T07:40:58.118Z,65.30
2018-03-18T07:43:31.159Z,64.90
2018-03-18T07:45:59.361Z,63.70
2018-03-18T07:48:26.300Z,61.40
2018-03-18T07:50:58.971Z,61.30
2018-03-18T07:53:33.287Z,61.00
2018-03-18T07:56:00.254Z,61.10
2018-03-18T07:58:28.441Z,61.00
2018-03-18T08:00:54.945Z,58.70
2018-03-18T08:03:21.186Z,59.60
2018-03-18T08:05:47.421Z,59.10
2018-03-18T08:08:14.392Z,58.00
2018-03-18T08:10:40.569Z,58.00
2018-03-18T08:13:07.081Z,57.70
2018-03-18T08:15:33.835Z,57.00
2018-03-18T08:18:00.237Z,58.10
2018-03-18T08:20:26.857Z,57.60
2018-03-18T08:22:54.024Z,56.90
2018-03-18T08:25:20.221Z,56.80
2018-03-18T08:27:46.458Z,56.60
2018-03-18T08:30:12.712Z,56.30
2018-03-18T08:32:38.863Z,56.80
2018-03-18T08:35:05.119Z,55.90
2018-03-18T08:37:31.896Z,57.40
2018-03-18T08:40:02.317Z,58.00
2018-03-18T08:42:28.763Z,55.80
2018-03-18T08:44:54.920Z,56.70
2018-03-18T08:47:21.141Z,55.50
2018-03-18T08:49:47.365Z,54.90
2018-03-18T08:52:13.678Z,54.00
2018-03-18T08:54:40.329Z,54.20
2018-03-18T08:57:06.531Z,54.00
2018-03-18T08:59:32.697Z,55.30
2018-03-18T09:01:59.207Z,55.70
2018-03-18T09:04:25.348Z,55.70
2018-03-18T09:06:51.480Z,55.90
2018-03-18T09:09:17.923Z,54.50
2018-03-18T09:11:44.120Z,55.30
2018-03-18T09:14:10.384Z,54.60
2018-03-18T09:16:36.488Z,54.20
2018-03-18T09:19:02.664Z,52.80
2018-03-18T09:21:28.845Z,54.30
2018-03-18T09:23:55.062Z,52.30
2018-03-18T09:26:21.292Z,51.30
2018-03-18T09:28:48.402Z,51.60
2018-03-18T09:31:15.804Z,51.10
2018-03-18T09:33:42.224Z,49.60
2018-03-18T09:36:11.092Z,49.80
2018-03-18T09:38:37.325Z,50.40
2018-03-18T09:41:03.680Z,48.30
2018-03-18T09:43:29.911Z,49.10
2018-03-18T09:45:56.066Z,47.70
2018-03-18T09:48:22.423Z,47.00
2018-03-18T09:50:50.153Z,47.90
2018-03-18T09:53:16.422Z,47.80
2018-03-18T09:55:42.671Z,46.40
2018-03-18T09:58:08.791Z,47.90
2018-03-18T10:00:34.965Z,47.40
2018-03-18T10:03:01.130Z,46.80
2018-03-18T10:05:27.304Z,46.60
2018-03-18T10:07:53.489Z,48.40
2018-03-18T10:10:19.623Z,47.80
2018-03-18T10:12:45.727Z,47.50
2018-03-18T10:15:12.042Z,46.50
2018-03-18T10:17:38.201Z,46.80
2018-03-18T10:20:04.333Z,46.80
2018-03-18T10:22:30.451Z,47.00
2018-03-18T10:24:56.646Z,46.00
2018-03-18T10:27:22.745Z,45.90
2018-03-18T10:29:48.924Z,46.40
2018-03-18T10:32:15.291Z,46.80
2018-03-18T10:34:41.452Z,47.20
2018-03-18T10:37:07.613Z,47.50
2018-03-18T10:39:33.764Z,46.60
2018-03-18T10:41:59.992Z,46.00
2018-03-18T10:44:26.045Z,46.50
2018-03-18T10:46:52.168Z,45.40
2018-03-18T10:49:19.384Z,46.10
2018-03-18T10:51:45.574Z,45.80
2018-03-18T10:54:11.756Z,45.90
2018-03-18T10:56:49.799Z,44.20
2018-03-18T10:59:16.110Z,44.80
2018-03-18T11:01:48.150Z,44.30
2018-03-18T11:04:16.495Z,43.00
2018-03-18T11:06:43.510Z,44.10
2018-03-18T11:09:09.772Z,44.10
2018-03-18T11:11:35.918Z,45.20
2018-03-18T11:14:02.076Z,42.80
2018-03-18T11:16:28.208Z,43.30
2018-03-18T11:18:54.405Z,43.10
2018-03-18T11:21:20.558Z,43.70
2018-03-18T11:23:47.952Z,43.30
2018-03-18T11:26:14.535Z,42.40
2018-03-18T11:28:40.744Z,43.10
2018-03-18T11:31:09.352Z,43.50
2018-03-18T11:33:36.413Z,43.60
2018-03-18T11:36:02.641Z,44.60
2018-03-18T11:38:28.820Z,44.60
2018-03-18T11:40:54.957Z,43.50
2018-03-18T11:43:21.120Z,44.50
2018-03-18T11:45:47.329Z,44.20
2018-03-18T11:48:14.257Z,43.40
2018-03-18T11:50:41.186Z,43.40
2018-03-18T12:08:39.054Z,43.70
2018-03-18T12:11:06.190Z,42.20
2018-03-18T12:13:32.528Z,42.20
2018-03-18T12:16:00.031Z,41.30
2018-03-18T12:18:29.471Z,41.80
2018-03-18T12:20:55.752Z,41.70
2018-03-18T12:23:21.991Z,41.50
2018-03-18T12:25:48.334Z,41.20
2018-03-18T12:28:18.702Z,41.40
2018-03-18T12:30:46.342Z,41.70
2018-03-18T12:33:12.801Z,41.50
2018-03-18T12:35:39.043Z,40.70
2018-03-18T12:38:05.197Z,41.10
2018-03-18T12:40:32.273Z,40.70
2018-03-18T12:43:10.706Z,40.70
2018-03-18T12:45:36.874Z,39.40
2018-03-18T12:48:03.144Z,39.60
2018-03-18T12:50:29.321Z,39.20
2018-03-18T12:52:56.252Z,37.80
2018-03-18T12:55:22.549Z,38.30
2018-03-18T12:57:48.857Z,38.20
2018-03-18T13:00:15.012Z,37.80
2018-03-18T13:02:41.253Z,38.40
2018-03-18T13:05:07.541Z,38.40
2018-03-18T13:07:35.376Z,37.50
2018-03-18T13:10:01.591Z,37.50
2018-03-18T13:12:27.761Z,38.10
2018-03-18T13:14:54.400Z,37.40
2018-03-18T13:17:20.740Z,37.00
2018-03-18T13:19:47.092Z,38.10
2018-03-18T13:22:13.421Z,36.80
2018-03-18T13:24:39.724Z,36.10
2018-03-18T13:27:05.917Z,35.90
2018-03-18T13:29:32.730Z,36.10
2018-03-18T13:31:59.610Z,36.60
2018-03-18T13:34:25.812Z,36.50
2018-03-18T13:36:52.123Z,35.80
2018-03-18T13:39:20.056Z,35.30
2018-03-18T13:41:46.706Z,36.10
2018-03-18T13:44:12.940Z,35.40
2018-03-18T13:46:39.140Z,36.70
2018-03-18T13:49:06.839Z,36.40
2018-03-18T13:51:33.510Z,36.50
2018-03-18T13:53:59.826Z,37.50
2018-03-18T13:56:26.426Z,36.80
2018-03-18T13:58:52.751Z,37.10
2018-03-18T14:01:19.140Z,36.90
2018-03-18T14:03:47.389Z,37.40
2018-03-18T14:06:13.697Z,37.90
2018-03-18T14:08:40.086Z,38.40
2018-03-18T14:11:06.311Z,37.10
2018-03-18T14:13:32.683Z,37.70
2018-03-18T14:15:59.271Z,37.70
2018-03-18T14:18:26.245Z,38.30
2018-03-18T14:20:56.715Z,38.20
2018-03-18T14:23:23.422Z,38.30
2018-03-18T14:25:49.691Z,38.30
2018-03-18T14:28:16.044Z,37.90
2018-03-18T14:30:45.163Z,37.90
2018-03-18T14:33:11.355Z,37.80
2018-03-18T14:35:45.348Z,37.70
2018-03-18T14:40:50.478Z,37.00
2018-03-18T14:43:16.847Z,37.10
2018-03-18T14:45:43.278Z,36.20
2018-03-18T14:48:09.482Z,36.60
2018-03-18T14:50:35.970Z,36.90
2018-03-18T14:53:21.229Z,36.60
2018-03-18T14:55:47.743Z,36.30
2018-03-18T15:01:17.342Z,36.60
2018-03-18T15:03:43.570Z,37.10
2018-03-18T15:06:10.088Z,37.50
2018-03-18T15:08:38.528Z,36.70
2018-03-18T15:11:04.902Z,36.90
2018-03-18T15:13:31.071Z,37.00
2018-03-18T15:15:57.203Z,37.00
2018-03-18T15:18:23.391Z,36.90
2018-03-18T15:20:49.746Z,35.90
2018-03-18T15:26:23.088Z,37.10
2018-03-18T15:28:51.378Z,36.30
2018-03-18T15:31:20.956Z,37.40
2018-03-18T15:33:48.510Z,37.10
2018-03-18T15:36:14.715Z,37.20
2018-03-18T15:38:40.896Z,36.80
2018-03-18T15:41:07.008Z,37.60
2018-03-18T15:43:33.232Z,37.90
2018-03-18T15:45:59.564Z,38.50
2018-03-18T15:48:25.709Z,38.40
2018-03-18T15:50:55.539Z,36.90
2018-03-18T15:53:22.828Z,37.00
2018-03-18T15:55:50.190Z,37.10
2018-03-18T15:58:20.833Z,35.50
2018-03-18T16:00:46.992Z,33.20
2018-03-18T16:03:16.342Z,32.40
2018-03-18T16:05:43.051Z,32.70
2018-03-18T16:08:09.829Z,33.20
2018-03-18T16:10:41.786Z,32.40
2018-03-18T16:13:10.507Z,32.40
2018-03-18T16:15:37.221Z,32.80
2018-03-18T16:18:03.467Z,33.80
2018-03-18T16:20:30.001Z,34.50
2018-03-18T16:22:56.969Z,35.70
2018-03-18T16:25:23.072Z,35.70
2018-03-18T16:27:50.443Z,36.20
2018-03-18T16:30:30.578Z,36.70
2018-03-18T16:32:56.782Z,38.00
2018-03-18T16:35:23.996Z,38.10
2018-03-18T16:37:50.382Z,38.10
2018-03-18T16:40:16.576Z,39.70
2018-03-18T16:42:42.699Z,39.60
2018-03-18T16:45:09.662Z,39.70
2018-03-18T16:47:42.593Z,39.50
2018-03-18T16:50:09.319Z,39.50
2018-03-18T16:52:35.600Z,39.90
2018-03-18T16:55:03.701Z,40.60
2018-03-18T16:57:29.938Z,40.50
2018-03-18T16:59:56.876Z,40.20
2018-03-18T17:02:24.239Z,40.20
2018-03-18T17:04:51.889Z,40.50
2018-03-18T17:19:33.463Z,41.20
2018-03-18T17:40:50.825Z,43.20
2018-03-18T17:43:17.256Z,43.30
2018-03-18T18:01:20.421Z,40.60
2018-03-18T18:03:46.640Z,40.70
2018-03-18T18:06:13.124Z,41.10
2018-03-18T18:08:39.292Z,41.10
2018-03-18T18:11:06.674Z,40.70
2018-03-18T18:16:42.571Z,40.60
2018-03-18T18:19:08.845Z,40.50
2018-03-18T18:21:34.987Z,41.00
2018-03-18T18:24:01.443Z,41.10
2018-03-18T18:26:27.577Z,40.90
2018-03-18T18:28:53.719Z,41.00
2018-03-18T18:31:19.919Z,41.30
2018-03-18T18:33:46.875Z,40.80
2018-03-18T18:36:13.072Z,40.90
2018-03-18T18:38:39.500Z,40.60
2018-03-18T18:41:05.695Z,40.50
2018-03-18T18:43:31.827Z,40.80
2018-03-18T18:45:59.168Z,40.70
2018-03-18T18:48:26.434Z,40.80
2018-03-18T18:50:52.732Z,40.90
2018-03-18T18:53:18.931Z,41.30
2018-03-18T18:55:45.228Z,39.60
2018-03-18T18:58:11.492Z,39.80
2018-03-18T19:00:37.650Z,39.80
2018-03-18T19:03:03.932Z,39.10
2018-03-18T19:05:30.202Z,38.90
2018-03-18T19:07:57.508Z,39.00
2018-03-18T19:10:26.132Z,38.90
2018-03-18T19:12:55.302Z,38.80
2018-03-18T19:15:21.817Z,38.30
2018-03-18T19:17:48.700Z,38.40
2018-03-18T19:32:25.298Z,38.30
2018-03-18T19:34:51.556Z,38.30
2018-03-18T19:37:19.180Z,38.20
2018-03-18T19:39:45.318Z,38.20
2018-03-18T19:42:11.435Z,38.90
2018-03-18T19:44:37.575Z,38.10
2018-03-18T19:47:04.566Z,38.40
2018-03-18T19:49:32.029Z,37.70
2018-03-18T19:51:58.205Z,37.70
2018-03-18T19:54:24.444Z,37.60
2018-03-18T19:56:50.621Z,37.80
2018-03-18T19:59:16.882Z,37.90
2018-03-18T20:01:43.207Z,37.30
2018-03-18T20:04:09.932Z,37.40
2018-03-18T20:06:41.242Z,37.40
2018-03-18T20:09:07.732Z,37.50
2018-03-18T20:11:34.054Z,37.30
2018-03-18T20:14:00.450Z,37.30
2018-03-18T20:16:27.162Z,37.20
2018-03-18T20:18:53.443Z,36.80
2018-03-18T20:21:19.612Z,37.30
2018-03-18T20:23:45.752Z,36.70
2018-03-18T20:26:12.047Z,37.20
2018-03-18T20:28:38.224Z,37.10
2018-03-18T20:31:05.115Z,36.00
2018-03-18T20:33:31.273Z,36.00
2018-03-18T20:35:57.412Z,37.00
2018-03-18T20:38:23.508Z,35.70
2018-03-18T20:40:49.687Z,35.80
2018-03-18T20:43:15.831Z,35.90
2018-03-18T20:45:42.816Z,35.50
2018-03-18T20:48:09.619Z,35.80
2018-03-18T20:50:39.366Z,35.90
2018-03-18T20:55:45.268Z,36.30
2018-03-18T20:58:24.592Z,36.30
2018-03-18T21:31:19.288Z,35.90
2018-03-18T21:33:45.533Z,35.80
2018-03-18T21:36:11.733Z,36.70
2018-03-18T21:38:38.370Z,36.90
2018-03-18T21:41:04.877Z,36.50
2018-03-18T21:43:31.315Z,36.90
2018-03-18T21:45:57.575Z,36.30
2018-03-18T21:48:23.728Z,36.50
2018-03-18T21:50:50.024Z,36.30
2018-03-18T21:53:16.965Z,36.40
2018-03-18T21:55:43.341Z,36.50
2018-03-18T21:58:09.529Z,36.20
2018-03-18T22:00:36.834Z,36.30
2018-03-18T22:03:02.981Z,35.60
2018-03-18T22:05:29.160Z,35.70
2018-03-18T22:07:55.324Z,35.60
2018-03-18T22:10:22.187Z,36.20
2018-03-18T22:12:49.041Z,36.00
2018-03-18T22:15:16.053Z,36.50
2018-03-18T22:17:42.365Z,35.90
2018-03-18T22:20:08.922Z,36.00
2018-03-18T22:22:35.130Z,36.50
2018-03-18T22:25:03.120Z,36.50
2018-03-18T22:27:29.974Z,37.00
2018-03-18T22:30:07.257Z,36.80
2018-03-18T22:32:33.481Z,37.20
2018-03-18T22:35:00.600Z,37.40
2018-03-18T22:37:27.063Z,37.20
2018-03-18T22:39:54.835Z,37.30
2018-03-18T22:42:21.064Z,37.60
2018-03-18T22:44:47.286Z,38.20
2018-03-18T22:47:14.174Z,37.50
2018-03-18T22:49:41.918Z,37.40
2018-03-18T22:52:08.174Z,37.80
2018-03-18T22:54:34.374Z,37.70
2018-03-18T22:57:00.541Z,37.40
2018-03-18T22:59:27.395Z,37.20
2018-03-18T23:01:54.237Z,37.70
2018-03-18T23:04:21.918Z,37.80
2018-03-18T23:06:48.123Z,37.80
2018-03-18T23:09:14.280Z,37.70
2018-03-18T23:11:40.447Z,38.40
2018-03-18T23:14:07.018Z,38.30
2018-03-18T23:16:33.200Z,38.60
2018-03-18T23:18:59.316Z,38.30
2018-03-18T23:21:25.927Z,38.60
2018-03-18T23:23:52.092Z,38.70
2018-03-18T23:26:18.212Z,38.70
2018-03-18T23:28:45.085Z,38.80
2018-03-18T23:31:11.206Z,38.70
2018-03-18T23:33:37.344Z,38.30
2018-03-18T23:36:03.485Z,38.20
2018-03-18T23:38:30.412Z,38.60
2018-03-18T23:40:56.600Z,38.60
2018-03-18T23:43:23.351Z,39.10
2018-03-18T23:45:49.651Z,38.90
2018-03-18T23:48:15.928Z,38.60
2018-03-18T23:50:47.895Z,38.70
2018-03-18T23:53:14.753Z,39.00
2018-03-18T23:55:41.617Z,39.10
2018-03-18T23:58:09.559Z,39.10
